Time;durP1;ratioP1;P1;durP2;ratioP2;P2;SDS_P1;SDS_P2;PMS_P1;PMS_P2;Temp;Humidity;BMP_temperature;BMP_pressure;BME280_temperature;BME280_humidity;BME280_pressure;Samples;Min_cycle;Max_cycle;Signal;HPM_P1;HPM_P2
2021/03/03 00:02:19;;;;;;;26.80;18.40;;;10.00;99.90;;;10.22;67.28;102758.59;4916565;29;20399;-72
2021/03/03 00:04:47;;;;;;;27.60;19.55;;;10.00;99.90;;;10.22;67.32;102766.53;4916281;29;20502;-73
2021/03/03 00:07:15;;;;;;;33.13;22.75;;;9.90;99.90;;;10.17;67.61;102772.56;4916302;29;20059;-72
2021/03/03 00:09:43;;;;;;;26.67;19.27;;;9.80;99.90;;;10.13;67.58;102766.31;4916311;29;20107;-73
2021/03/03 00:12:10;;;;;;;26.48;17.98;;;9.80;99.90;;;9.97;68.25;102769.31;4916123;29;20048;-73
2021/03/03 00:14:38;;;;;;;26.33;19.85;;;9.60;99.90;;;9.78;69.03;102770.56;4916759;29;20048;-73
2021/03/03 00:17:06;;;;;;;17.33;14.60;;;9.50;99.90;;;9.72;69.06;102772.09;4916253;29;20474;-73
2021/03/03 00:19:34;;;;;;;12.18;10.75;;;9.40;99.90;;;9.73;68.00;102788.03;4916163;29;20044;-73
2021/03/03 00:22:02;;;;;;;20.65;16.33;;;9.40;99.90;;;9.74;68.77;102786.25;4916065;29;20044;-72
2021/03/03 00:24:29;;;;;;;20.45;15.88;;;9.40;99.90;;;9.61;68.63;102752.41;4916181;29;20048;-73
2021/03/03 00:26:56;;;;;;;14.98;12.50;;;9.40;99.90;;;9.67;68.57;102777.28;4916270;29;20048;-73
2021/03/03 00:29:24;;;;;;;16.95;14.10;;;9.40;99.90;;;9.67;68.83;102779.00;4916105;29;20074;-73
2021/03/03 00:31:51;;;;;;;23.63;17.05;;;9.40;99.90;;;9.63;68.66;102771.84;4916166;29;20136;-72
2021/03/03 00:34:20;;;;;;;20.75;17.42;;;9.30;99.90;;;9.60;68.63;102763.84;4916206;29;20052;-73
2021/03/03 00:36:47;;;;;;;23.55;18.30;;;9.30;99.90;;;9.57;68.67;102772.56;4916080;29;20048;-73
2021/03/03 00:39:15;;;;;;;21.85;17.45;;;9.30;99.90;;;9.55;68.67;102776.00;4915993;29;20040;-73
2021/03/03 00:41:42;;;;;;;26.20;20.38;;;9.20;99.90;;;9.53;69.16;102783.88;4915984;29;20056;-72
2021/03/03 00:44:10;;;;;;;23.45;18.15;;;9.20;99.90;;;9.48;68.83;102779.31;4916239;29;20422;-73
2021/03/03 00:46:37;;;;;;;21.92;16.20;;;9.10;99.90;;;9.41;68.97;102778.22;4916377;29;20055;-71
2021/03/03 00:49:06;;;;;;;20.50;14.82;;;9.10;99.90;;;9.41;68.83;102770.28;4899036;29;20048;-73
2021/03/03 00:51:34;;;;;;;21.13;16.40;;;9.10;99.90;;;9.36;68.61;102774.56;4899063;29;20052;-72
2021/03/03 00:54:02;;;;;;;15.82;13.80;;;9.10;99.90;;;9.32;68.87;102775.31;4915844;29;20513;-73
2021/03/03 00:56:31;;;;;;;12.25;10.70;;;9.00;99.90;;;9.28;69.24;102772.50;4898904;29;20532;-73
2021/03/03 00:59:01;;;;;;;19.45;15.80;;;9.00;99.90;;;9.31;69.50;102765.56;4899033;29;20076;-73
2021/03/03 01:01:30;;;;;;;11.15;10.05;;;9.00;99.90;;;9.01;69.16;102735.56;4900915;29;20056;-73
2021/03/03 01:03:58;;;;;;;9.27;8.40;;;9.00;99.90;;;9.27;68.74;102765.44;4902411;29;20051;-73
2021/03/03 01:06:32;;;;;;;9.75;8.75;;;9.00;99.90;;;9.23;68.70;102761.81;4902392;29;20422;-73
2021/03/03 01:09:01;;;;;;;7.47;6.85;;;8.90;99.90;;;9.13;69.32;102767.66;4902641;29;20103;-72
2021/03/03 01:11:31;;;;;;;8.57;7.78;;;8.80;99.90;;;9.10;69.29;102762.25;4902366;29;20052;-73
2021/03/03 01:14:01;;;;;;;9.65;8.73;;;8.80;99.90;;;9.13;69.07;102762.38;4902341;29;20048;-73
2021/03/03 01:16:31;;;;;;;14.43;10.95;;;8.80;99.90;;;9.25;68.95;102760.13;4902211;29;20052;-73
2021/03/03 01:19:07;;;;;;;11.38;10.18;;;8.90;99.90;;;9.30;69.60;102755.88;4919180;29;20441;-72
2021/03/03 01:21:34;;;;;;;7.95;7.28;;;8.90;99.90;;;9.18;68.56;102758.13;4919118;29;20088;-72
2021/03/03 01:24:02;;;;;;;9.23;8.25;;;8.90;99.90;;;9.10;68.75;102751.69;4919035;29;20463;-72
2021/03/03 01:26:30;;;;;;;10.80;8.15;;;8.80;99.90;;;9.07;69.01;102755.16;4918987;29;20076;-71
2021/03/03 01:28:57;;;;;;;9.02;8.23;;;8.70;99.90;;;9.00;69.30;102747.88;4918952;29;20044;-72
2021/03/03 01:31:24;;;;;;;8.70;7.90;;;8.70;99.90;;;8.94;69.32;102752.94;4918703;29;20052;-73
2021/03/03 01:33:52;;;;;;;9.20;8.32;;;8.70;99.90;;;8.86;69.75;102750.94;4918876;29;20032;-73
2021/03/03 01:36:19;;;;;;;8.05;7.05;;;8.60;99.90;;;8.85;69.96;102743.84;4901663;29;20138;-72
2021/03/03 01:38:47;;;;;;;7.20;6.60;;;8.50;99.90;;;8.87;69.84;102743.06;4918543;29;20044;-72
2021/03/03 01:41:15;;;;;;;9.48;8.57;;;8.60;99.90;;;8.90;69.61;102737.00;4918609;29;20044;-73
2021/03/03 01:43:42;;;;;;;17.73;13.48;;;8.60;99.90;;;8.93;69.69;102732.69;4901789;29;20056;-73
2021/03/03 01:46:10;;;;;;;11.93;10.35;;;8.60;99.90;;;8.90;70.03;102737.84;4918419;29;20052;-72
2021/03/03 01:48:38;;;;;;;14.13;10.57;;;8.60;99.90;;;8.88;69.66;102733.41;4918520;29;20123;-73
2021/03/03 01:51:08;;;;;;;6.85;6.20;;;8.60;99.90;;;8.64;69.70;102700.94;4918379;29;20499;-73
2021/03/03 01:53:35;;;;;;;7.53;6.82;;;8.60;99.90;;;8.79;69.47;102735.72;4901463;29;20103;-73
2021/03/03 01:56:03;;;;;;;7.88;7.20;;;8.50;99.90;;;8.72;69.87;102734.63;4918425;29;20051;-72
2021/03/03 01:58:31;;;;;;;8.95;8.05;;;8.50;99.90;;;8.68;69.90;102724.84;4918008;29;20047;-73
2021/03/03 02:01:16;;;;;;;10.80;9.57;;;8.40;99.90;;;8.69;70.36;102731.00;4918536;29;20055;-73
2021/03/03 02:03:44;;;;;;;8.40;7.60;;;8.40;99.90;;;8.61;70.00;102721.94;4918168;29;20135;-73
2021/03/03 02:06:20;;;;;;;11.32;10.13;;;8.30;99.90;;;8.68;70.26;102729.19;4918120;29;20060;-73
2021/03/03 02:08:54;;;;;;;13.65;10.88;;;8.40;99.90;;;8.63;69.79;102729.03;4918213;29;20056;-71
2021/03/03 02:11:29;;;;;;;7.80;7.13;;;8.30;99.90;;;8.58;69.28;102727.09;4901249;29;20056;-73
2021/03/03 02:14:06;;;;;;;6.97;6.38;;;8.30;99.90;;;8.51;69.81;102749.75;4918368;29;20076;-73
2021/03/03 02:16:36;;;;;;;9.07;8.25;;;8.20;99.90;;;8.43;69.92;102723.97;4918185;29;20055;-73
2021/03/03 02:19:05;;;;;;;7.55;6.78;;;8.20;99.90;;;7.67;69.99;102589.53;4918161;29;20040;-72
2021/03/03 02:21:37;;;;;;;8.52;7.65;;;8.20;99.90;;;8.42;69.91;102716.91;4918026;29;20139;-73
2021/03/03 02:24:10;;;;;;;8.85;7.63;;;8.20;99.90;;;8.36;69.97;102709.69;4917818;29;20086;-72
2021/03/03 02:26:39;;;;;;;6.57;6.07;;;8.10;99.90;;;8.34;69.79;102718.38;4900959;29;20052;-73
2021/03/03 02:29:09;;;;;;;7.05;6.32;;;8.00;99.90;;;8.36;70.22;102712.31;4917755;29;20067;-73
2021/03/03 02:31:40;;;;;;;7.05;6.53;;;8.10;99.90;;;8.36;70.56;102714.06;4917576;29;20060;-72
2021/03/03 02:34:09;;;;;;;9.15;8.25;;;8.10;99.90;;;8.05;70.49;102662.00;4917449;29;20044;-73
2021/03/03 02:36:37;;;;;;;9.85;8.85;;;8.00;99.90;;;8.32;70.75;102706.88;4900842;29;20051;-72
2021/03/03 02:39:06;;;;;;;7.82;7.20;;;8.00;99.90;;;8.37;70.15;102713.19;4900709;29;20459;-73
2021/03/03 02:41:35;;;;;;;12.82;9.93;;;8.00;99.90;;;8.35;69.65;102713.16;4917540;29;20599;-73
2021/03/03 02:44:05;;;;;;;27.03;19.27;;;8.10;99.90;;;8.45;70.81;102715.25;4917471;29;20115;-72
2021/03/03 02:46:34;;;;;;;27.30;19.55;;;8.20;99.90;;;8.58;71.31;102719.19;4917465;29;20076;-73
2021/03/03 02:49:02;;;;;;;20.20;16.65;;;8.30;99.90;;;8.61;71.04;102714.03;4917631;29;20050;-73
2021/03/03 02:51:30;;;;;;;14.15;12.45;;;8.50;99.90;;;8.60;70.42;102714.84;4917468;29;20055;-72
2021/03/03 02:53:58;;;;;;;13.87;11.63;;;8.40;99.90;;;8.52;70.60;102708.44;4917399;29;20115;-73
2021/03/03 02:56:25;;;;;;;13.38;11.50;;;8.30;99.90;;;8.43;70.57;102705.50;4917107;29;20487;-72
2021/03/03 02:58:53;;;;;;;11.00;9.95;;;8.20;99.90;;;8.35;70.29;102699.06;4917057;29;20138;-72
2021/03/03 03:01:26;;;;;;;13.40;10.80;;;8.10;99.90;;;8.38;70.35;102707.97;4917323;29;20086;-72
2021/03/03 03:03:59;;;;;;;11.55;10.40;;;8.10;99.90;;;8.41;70.68;102701.91;4917320;29;20048;-72
2021/03/03 03:06:32;;;;;;;11.65;10.45;;;8.10;99.90;;;8.32;70.56;102697.25;4917247;29;20119;-72
2021/03/03 03:09:05;;;;;;;12.60;10.95;;;8.10;99.90;;;8.35;71.05;102704.34;4917111;29;20055;-72
2021/03/03 03:11:34;;;;;;;9.15;8.10;;;8.00;99.90;;;8.23;70.33;102700.41;4916990;29;20052;-72
2021/03/03 03:14:09;;;;;;;8.60;7.90;;;8.00;99.90;;;8.24;70.42;102688.13;4917036;29;20449;-73
2021/03/03 03:16:39;;;;;;;8.65;7.85;;;7.90;99.90;;;8.05;71.06;102670.78;4917049;29;20040;-72
2021/03/03 03:19:11;;;;;;;11.27;10.13;;;7.90;99.90;;;8.26;71.35;102694.41;4916993;29;20040;-72
2021/03/03 03:21:43;;;;;;;11.48;8.93;;;7.90;99.90;;;8.28;71.28;102689.16;4916937;29;20058;-72
2021/03/03 03:24:11;;;;;;;22.88;17.50;;;7.90;99.90;;;8.26;72.15;102690.84;4916379;29;20044;-72
2021/03/03 03:26:39;;;;;;;12.15;10.90;;;8.00;99.90;;;8.01;71.92;102647.78;4917026;29;20395;-72
2021/03/03 03:29:09;;;;;;;12.48;11.13;;;8.00;99.90;;;8.31;71.54;102700.69;4899908;29;20407;-72
2021/03/03 03:31:38;;;;;;;11.03;9.93;;;8.00;99.90;;;8.25;71.71;102702.22;4916753;29;20044;-72
2021/03/03 03:34:08;;;;;;;12.02;10.73;;;7.90;99.90;;;8.20;71.45;102697.69;4916631;29;20130;-72
2021/03/03 03:36:37;;;;;;;12.95;11.48;;;7.90;99.90;;;8.00;71.73;102667.09;4899617;29;20118;-72
2021/03/03 03:39:07;;;;;;;28.90;20.05;;;7.90;99.90;;;8.26;72.66;102689.13;4916724;29;20052;-72
2021/03/03 03:41:36;;;;;;;30.95;20.90;;;8.00;99.90;;;8.32;73.27;102698.97;4916749;29;20048;-71
2021/03/03 03:44:08;;;;;;;34.25;25.02;;;8.00;99.90;;;8.18;73.63;102682.66;4916676;29;20068;-72
2021/03/03 03:46:39;;;;;;;29.98;23.23;;;8.00;99.90;;;8.28;73.69;102704.97;4916604;29;20048;-72
2021/03/03 03:49:06;;;;;;;23.10;18.83;;;8.00;99.90;;;8.25;73.18;102710.13;4916513;29;20490;-73
2021/03/03 03:51:34;;;;;;;11.63;10.52;;;7.90;99.90;;;8.15;72.74;102701.88;4916487;29;20076;-72
2021/03/03 03:54:02;;;;;;;13.52;11.07;;;7.90;99.90;;;7.75;72.60;102638.09;4916437;29;20094;-72
2021/03/03 03:56:29;;;;;;;24.00;17.90;;;7.90;99.90;;;8.17;72.94;102704.56;4899539;29;20083;-72
2021/03/03 03:58:57;;;;;;;26.30;19.52;;;7.90;99.90;;;8.23;73.23;102703.03;4916346;29;20096;-71
2021/03/03 04:01:24;;;;;;;13.35;11.45;;;7.90;99.90;;;8.19;72.13;102706.41;4899409;29;20076;-72
2021/03/03 04:03:52;;;;;;;12.10;10.80;;;7.90;99.90;;;8.14;71.54;102708.00;4916291;29;20099;-71
2021/03/03 04:06:19;;;;;;;17.55;12.52;;;7.90;99.90;;;8.12;71.58;102714.97;4916145;29;20178;-72
2021/03/03 04:08:47;;;;;;;20.58;14.93;;;7.80;99.90;;;8.04;71.92;102713.78;4916494;29;20044;-71
2021/03/03 04:11:14;;;;;;;18.45;14.40;;;7.80;99.90;;;8.06;71.69;102724.38;4899409;29;20179;-72
2021/03/03 04:13:42;;;;;;;20.25;16.23;;;7.80;99.90;;;7.96;72.12;102706.44;4916300;29;20076;-72
2021/03/03 04:16:09;;;;;;;35.47;24.63;;;7.70;99.90;;;8.10;73.23;102735.09;4916215;29;20072;-72
2021/03/03 04:18:37;;;;;;;32.22;22.50;;;7.80;99.90;;;8.12;73.89;102736.06;4916321;29;20410;-72
2021/03/03 04:21:05;;;;;;;37.28;24.92;;;7.80;99.90;;;7.97;74.68;102726.69;4916185;29;20044;-74
2021/03/03 04:23:33;;;;;;;46.45;29.65;;;7.70;99.90;;;8.03;76.89;102738.34;4916262;29;20052;-74
2021/03/03 04:26:00;;;;;;;52.20;32.93;;;7.70;99.90;;;8.10;77.57;102737.72;4916131;29;20108;-74
2021/03/03 04:28:27;;;;;;;51.20;34.80;;;7.80;99.90;;;8.10;78.19;102736.84;4916006;29;20075;-73
2021/03/03 04:30:55;;;;;;;52.83;33.95;;;7.80;99.90;;;8.04;79.16;102737.50;4916055;29;20107;-72
2021/03/03 04:33:23;;;;;;;52.30;33.85;;;7.70;99.90;;;8.19;79.32;102735.41;4916092;29;20072;-73
2021/03/03 04:35:50;;;;;;;45.47;29.00;;;7.80;99.90;;;7.90;78.92;102736.13;4917331;29;20115;-72
2021/03/03 04:38:19;;;;;;;38.15;26.10;;;7.70;99.90;;;7.70;79.45;102730.97;4919812;29;20040;-72
2021/03/03 04:40:47;;;;;;;40.53;24.25;;;7.40;99.90;;;7.47;80.02;102722.19;4919799;29;20143;-72
2021/03/03 04:43:14;;;;;;;50.20;20.83;;;7.20;99.90;;;7.21;80.60;102728.19;4919487;29;20521;-72
2021/03/03 04:45:42;;;;;;;28.33;20.33;;;7.00;99.90;;;6.99;81.83;102721.19;4919617;29;20048;-72
2021/03/03 04:48:10;;;;;;;23.73;18.60;;;6.80;99.90;;;7.02;82.12;102725.69;4919929;29;20466;-73
2021/03/03 04:50:38;;;;;;;43.53;19.70;;;6.70;99.90;;;6.96;82.11;102720.19;4919634;29;20048;-72
2021/03/03 04:53:06;;;;;;;34.83;17.97;;;6.70;99.90;;;6.97;82.18;102722.88;4919605;29;20052;-73
2021/03/03 04:55:35;;;;;;;31.87;17.67;;;6.80;99.90;;;6.95;82.57;102715.78;4919427;29;20383;-72
2021/03/03 04:58:02;;;;;;;22.20;17.63;;;6.70;99.90;;;6.96;83.08;102710.56;4902400;29;20047;-73
2021/03/03 05:00:30;;;;;;;19.50;16.60;;;6.70;99.90;;;7.03;82.92;102715.22;4919465;29;20052;-73
2021/03/03 05:02:58;;;;;;;18.63;16.23;;;6.80;99.90;;;7.07;83.07;102705.72;4919322;29;20044;-73
2021/03/03 05:05:26;;;;;;;17.87;15.63;;;6.80;99.90;;;7.14;83.03;102706.00;4919262;29;20099;-73
2021/03/03 05:07:54;;;;;;;27.80;16.00;;;6.80;99.90;;;7.25;82.43;102707.34;4919226;29;20048;-70
2021/03/03 05:10:21;;;;;;;18.37;16.37;;;7.00;99.90;;;7.28;82.41;102707.44;4901984;29;20052;-73
2021/03/03 05:12:50;;;;;;;18.00;16.10;;;7.10;99.90;;;7.30;82.76;102708.41;4919315;29;20051;-75
2021/03/03 05:15:18;;;;;;;18.27;16.08;;;7.10;99.90;;;7.27;82.62;102694.22;4919255;29;20080;-80
2021/03/03 05:17:46;;;;;;;17.27;14.83;;;7.10;99.90;;;7.17;82.81;102692.06;4918957;29;20068;-78
2021/03/03 05:20:14;;;;;;;22.48;16.17;;;7.00;99.90;;;7.12;83.26;102710.31;4919092;29;20059;-81
2021/03/03 05:22:42;;;;;;;16.40;14.70;;;6.90;99.90;;;7.37;82.95;102714.81;4918972;29;20047;-73
2021/03/03 05:25:11;;;;;;;23.97;14.83;;;7.10;99.90;;;7.30;82.31;102710.13;4901853;29;20058;-72
2021/03/03 05:27:39;;;;;;;17.97;13.93;;;7.10;99.90;;;7.26;82.67;102713.47;4919095;29;20486;-72
2021/03/03 05:30:09;;;;;;;15.70;14.07;;;7.00;99.90;;;7.10;83.25;102711.97;4918832;29;20090;-71
2021/03/03 05:32:36;;;;;;;28.67;16.77;;;6.90;99.90;;;7.15;82.73;102712.16;4918972;29;20039;-71
2021/03/03 05:35:05;;;;;;;29.77;15.93;;;6.90;99.90;;;7.09;83.51;102711.94;4918809;29;20052;-78
2021/03/03 05:37:32;;;;;;;18.70;16.70;;;6.90;99.90;;;7.15;83.63;102706.91;4918487;29;20111;-73
2021/03/03 05:40:00;;;;;;;19.63;15.37;;;6.90;99.90;;;7.12;83.61;102712.06;4901799;29;20131;-72
2021/03/03 05:42:29;;;;;;;20.27;15.57;;;6.80;99.90;;;7.17;83.65;102708.78;4918851;29;20052;-72
2021/03/03 05:44:56;;;;;;;37.13;16.13;;;6.80;99.90;;;7.32;83.84;102713.72;4918570;29;20485;-72
2021/03/03 05:47:26;;;;;;;32.70;16.60;;;7.00;99.90;;;7.21;83.40;102701.88;4918228;29;20048;-72
2021/03/03 05:49:58;;;;;;;27.23;16.20;;;7.00;99.90;;;7.27;83.71;102703.03;4918511;29;20044;-72
2021/03/03 05:52:29;;;;;;;55.97;16.90;;;7.10;99.90;;;7.42;83.63;102704.41;4918475;29;20040;-72
2021/03/03 05:54:56;;;;;;;33.20;16.65;;;7.20;99.90;;;7.21;84.10;102699.25;4918601;29;20080;-72
2021/03/03 05:57:24;;;;;;;26.20;15.83;;;7.00;99.90;;;7.24;83.86;102704.63;4918614;29;20509;-72
2021/03/03 05:59:52;;;;;;;26.00;17.60;;;7.00;99.90;;;7.15;84.72;102699.00;4918300;29;20099;-72
2021/03/03 06:02:21;;;;;;;22.43;18.37;;;6.90;99.90;;;7.12;83.79;102672.59;4918252;29;20451;-72
2021/03/03 06:04:50;;;;;;;30.10;18.47;;;7.10;99.90;;;7.14;84.54;102705.13;4918126;29;20052;-72
2021/03/03 06:07:18;;;;;;;22.00;17.50;;;7.00;99.90;;;7.23;84.49;102702.84;4918328;29;20526;-72
2021/03/03 06:09:46;;;;;;;23.57;17.73;;;7.00;99.90;;;7.43;84.61;102707.16;4901217;29;20048;-73
2021/03/03 06:12:13;;;;;;;40.63;18.13;;;7.10;99.90;;;7.33;83.67;102705.00;4901099;29;20486;-72
2021/03/03 06:14:41;;;;;;;28.80;18.57;;;7.20;99.90;;;7.25;84.06;102711.69;4901036;29;20411;-72
2021/03/03 06:17:09;;;;;;;26.80;18.07;;;7.10;99.90;;;7.35;84.19;102721.75;4900965;29;20107;-72
2021/03/03 06:19:37;;;;;;;28.33;19.30;;;7.10;99.90;;;7.41;83.65;102726.34;4901067;29;20056;-72
2021/03/03 06:22:25;;;;;;;24.57;19.70;;;7.10;99.90;;;7.51;83.72;102724.09;4917907;29;20044;-72
2021/03/03 06:24:55;;;;;;;24.97;19.13;;;7.20;99.90;;;7.65;83.52;102714.06;4917988;29;20159;-72
2021/03/03 06:27:23;;;;;;;23.17;18.95;;;7.40;99.90;;;7.82;82.83;102726.16;4918031;29;20067;-71
2021/03/03 06:30:07;;;;;;;24.63;19.13;;;7.60;99.90;;;7.68;83.00;102716.84;4917732;29;20063;-72
2021/03/03 06:32:56;;;;;;;22.83;19.60;;;7.50;99.90;;;7.69;83.14;102729.16;4918193;29;20040;-72
2021/03/03 06:35:40;;;;;;;25.08;20.80;;;7.40;99.90;;;7.91;82.53;102735.28;4917634;29;20048;-72
2021/03/03 06:38:11;;;;;;;25.97;20.60;;;7.60;99.90;;;7.64;82.16;102729.00;4917379;29;20040;-72
2021/03/03 06:40:53;;;;;;;30.60;20.95;;;7.50;99.90;;;7.43;83.08;102738.72;4917707;29;20056;-72
2021/03/03 06:43:23;;;;;;;29.27;21.83;;;7.30;99.90;;;7.40;83.78;102740.31;4917496;29;20060;-72
2021/03/03 06:45:51;;;;;;;;;;;7.10;99.90;;;7.41;83.40;102737.78;4917886;29;20060;-72
2021/03/03 06:48:39;;;;;;;29.50;22.80;;;7.20;99.90;;;7.45;83.67;102723.91;4917206;29;19923;-71
2021/03/03 06:51:27;;;;;;;33.33;23.40;;;7.30;99.90;;;7.46;82.99;102706.34;4917575;29;20040;-71
2021/03/03 06:53:58;;;;;;;36.47;25.40;;;7.30;99.90;;;7.83;82.50;102746.38;4917472;29;20458;-71
2021/03/03 06:56:39;;;;;;;34.77;25.60;;;7.50;99.90;;;7.84;82.16;102750.81;4917137;29;20095;-71
2021/03/03 06:59:13;;;;;;;36.27;25.83;;;7.60;99.90;;;7.54;82.21;102752.28;4916689;29;20048;-73
2021/03/03 07:01:41;;;;;;;39.23;27.23;;;7.40;99.90;;;7.40;82.54;102758.75;4917186;29;20074;-71
2021/03/03 07:04:26;;;;;;;52.20;28.53;;;7.20;99.90;;;7.17;83.32;102753.50;4917217;29;20040;-71
2021/03/03 07:06:56;;;;;;;114.30;30.97;;;7.00;99.90;;;7.29;84.05;102753.09;4917290;29;20055;-71
2021/03/03 07:09:36;;;;;;;45.75;30.95;;;7.00;99.90;;;7.23;83.96;102759.00;4917087;29;20096;-71
2021/03/03 07:12:08;;;;;;;37.47;28.90;;;7.00;99.90;;;7.29;84.39;102751.38;4917081;29;20051;-71
2021/03/03 07:14:35;;;;;;;41.10;30.90;;;7.10;99.90;;;7.53;83.94;102769.81;4899958;29;20111;-71
2021/03/03 07:17:12;;;;;;;39.75;29.52;;;7.20;99.90;;;7.49;83.58;102772.28;4916859;29;20088;-71
2021/03/03 07:19:43;;;;;;;42.67;32.40;;;7.30;99.90;;;7.47;83.44;102766.94;4916805;29;20418;-72
2021/03/03 07:22:27;;;;;;;41.57;33.13;;;7.30;99.90;;;7.54;82.87;102781.25;4916826;29;20123;-71
2021/03/03 07:25:05;;;;;;;44.67;32.07;;;7.30;99.90;;;7.74;83.23;102782.91;4916853;29;20050;-72
2021/03/03 07:27:33;;;;;;;54.80;34.75;;;7.40;99.90;;;7.57;82.39;102790.16;4916548;29;20504;-71
2021/03/03 07:30:05;;;;;;;49.23;36.00;;;7.40;99.90;;;7.42;82.92;102770.25;4916331;29;20055;-71
2021/03/03 07:32:32;;;;;;;82.87;37.57;;;7.30;99.90;;;7.46;83.34;102788.84;4916941;29;20052;-72
2021/03/03 07:35:01;;;;;;;67.93;36.67;;;7.30;99.90;;;7.14;83.74;102789.34;4916836;29;20144;-72
2021/03/03 07:37:34;;;;;;;62.00;36.37;;;7.10;99.90;;;7.32;83.91;102795.31;4899706;29;20052;-72
2021/03/03 07:40:06;;;;;;;55.87;39.10;;;7.10;99.90;;;7.29;84.36;102792.56;4916635;29;20394;-72
2021/03/03 07:42:35;;;;;;;63.53;39.13;;;7.00;99.90;;;7.33;84.21;102783.97;4899452;29;20060;-71
2021/03/03 07:45:08;;;;;;;67.87;40.17;;;7.10;99.90;;;7.35;84.17;102784.00;4916656;29;20110;-71
2021/03/03 07:47:40;;;;;;;57.87;40.30;;;7.10;99.90;;;7.41;83.87;102797.41;4916578;29;20043;-73
2021/03/03 07:50:10;;;;;;;55.70;39.60;;;7.10;99.90;;;7.47;84.17;102758.16;4916545;29;20134;-72
2021/03/03 07:52:42;;;;;;;74.57;43.45;;;7.30;99.90;;;7.40;84.15;102790.34;4916525;29;20588;-73
2021/03/03 07:55:13;;;;;;;57.40;41.20;;;7.30;99.90;;;7.55;84.58;102781.31;4916474;29;20044;-72
2021/03/03 07:57:45;;;;;;;71.30;42.70;;;7.30;99.90;;;7.66;83.68;102780.00;4916471;29;20609;-72
2021/03/03 08:00:19;;;;;;;61.57;41.17;;;7.50;99.90;;;7.67;83.76;102784.41;4916565;29;20103;-72
2021/03/03 08:02:50;;;;;;;70.27;44.63;;;7.50;99.90;;;7.53;84.01;102771.56;4916471;29;20051;-72
2021/03/03 08:05:28;;;;;;;78.03;44.55;;;7.40;99.90;;;7.64;83.41;102788.69;4916391;29;20096;-72
2021/03/03 08:08:24;;;;;;;76.03;45.10;;;7.40;99.90;;;7.51;84.36;102792.56;4916557;29;20056;-71
2021/03/03 08:11:26;;;;;;;63.93;44.83;;;7.30;99.90;;;7.62;84.84;102782.44;4919212;29;20072;-71
2021/03/03 08:13:53;;;;;;;64.63;45.60;;;7.40;99.90;;;7.63;84.56;102773.69;4920098;29;20479;-72
2021/03/03 08:16:21;;;;;;;67.38;45.15;;;7.40;99.90;;;7.85;84.68;102779.84;4920211;29;20079;-72
2021/03/03 08:18:54;;;;;;;71.60;46.28;;;7.60;99.90;;;8.02;83.75;102778.72;4920178;29;20072;-72
2021/03/03 08:21:27;;;;;;;100.85;45.05;;;7.70;99.90;;;8.13;83.03;102784.38;4920436;29;20119;-72
2021/03/03 08:23:55;;;;;;;92.43;44.28;;;7.90;99.90;;;8.01;82.92;102770.78;4920116;29;20048;-72
2021/03/03 08:26:39;;;;;;;62.00;43.55;;;7.80;99.90;;;8.04;82.41;102813.03;4919783;29;20080;-72
2021/03/03 08:29:27;;;;;;;67.22;43.42;;;7.80;99.90;;;8.06;83.00;102793.81;4920004;29;20084;-72
2021/03/03 08:32:24;;;;;;;65.03;42.55;;;7.80;99.90;;;7.92;83.26;102797.66;4919882;29;20054;-73
2021/03/03 08:34:54;;;;;;;60.67;41.90;;;7.70;99.90;;;7.94;83.86;102798.63;4919543;29;20040;-72
2021/03/03 08:37:31;;;;;;;59.90;43.17;;;7.70;99.90;;;8.01;83.50;102790.09;4920116;29;20044;-71
2021/03/03 08:39:59;;;;;;;71.57;44.22;;;7.70;99.90;;;7.99;83.12;102791.78;4902840;29;20044;-71
2021/03/03 08:42:37;;;;;;;65.53;43.35;;;7.70;99.90;;;8.13;83.13;102792.28;4919964;29;20052;-69
2021/03/03 08:45:15;;;;;;;80.72;44.88;;;7.90;99.90;;;8.21;83.17;102786.44;4919465;29;20549;-70
2021/03/03 08:47:58;;;;;;;98.90;60.40;;;8.00;99.90;;;8.34;83.11;102789.56;4919285;29;20036;-69
2021/03/03 08:50:33;;;;;;;115.40;66.22;;;8.10;99.90;;;8.49;82.53;102782.19;4919540;29;20127;-69
2021/03/03 08:53:35;;;;;;;64.05;44.45;;;8.20;99.90;;;8.28;83.02;102781.44;4919280;29;20107;-72
2021/03/03 08:56:37;;;;;;;65.65;44.03;;;8.10;99.90;;;8.46;83.19;102779.44;4902683;29;20056;-70
2021/03/03 08:59:07;;;;;;;65.50;46.03;;;8.20;99.90;;;8.55;82.63;102779.75;4919306;29;20107;-70
2021/03/03 09:01:58;;;;;;;66.47;44.87;;;8.30;99.90;;;8.69;81.93;102786.41;4919378;29;20048;-68
2021/03/03 09:04:29;;;;;;;66.97;44.83;;;8.40;99.90;;;8.62;81.73;102781.75;4918282;29;20062;-69
2021/03/03 09:06:59;;;;;;;75.47;45.50;;;8.40;99.90;;;8.58;81.84;102787.75;4919241;29;20056;-68
2021/03/03 09:09:29;;;;;;;76.60;46.38;;;8.30;99.90;;;8.54;82.02;102760.41;4919307;29;20036;-68
2021/03/03 09:12:01;;;;;;;67.93;46.47;;;8.40;99.90;;;8.86;80.69;102787.88;4919099;29;20509;-68
2021/03/03 09:14:31;;;;;;;71.30;48.25;;;8.60;99.90;;;8.84;80.24;102784.28;4919035;29;20056;-68
2021/03/03 09:17:00;;;;;;;72.63;48.47;;;8.60;99.90;;;8.84;80.67;102773.72;4918980;29;20052;-68
2021/03/03 09:19:31;;;;;;;70.20;46.47;;;8.60;99.90;;;8.93;80.34;102774.03;4919154;29;20048;-67
2021/03/03 09:21:59;;;;;;;68.10;46.97;;;8.70;99.90;;;8.97;79.77;102765.34;4918638;29;20517;-67
2021/03/03 09:24:30;;;;;;;72.00;48.15;;;8.80;99.90;;;8.79;80.66;102783.22;4917607;29;20052;-68
2021/03/03 09:27:15;;;;;;;74.50;49.25;;;8.60;99.90;;;8.60;81.66;102772.88;4918704;29;20066;-67
2021/03/03 09:29:44;;;;;;;85.32;53.42;;;8.40;99.90;;;8.55;82.09;102767.47;4917373;29;20123;-68
2021/03/03 09:32:13;;;;;;;80.05;51.88;;;8.30;99.90;;;8.70;81.84;102769.72;4918553;29;20462;-68
2021/03/03 09:34:46;;;;;;;78.68;51.42;;;8.40;99.90;;;8.72;82.31;102778.59;4918653;29;20115;-68
2021/03/03 09:37:15;;;;;;;84.07;53.90;;;8.40;99.90;;;8.86;82.06;102777.31;4917248;29;20055;-68
2021/03/03 09:39:43;;;;;;;86.50;54.95;;;8.60;99.90;;;8.77;81.55;102745.31;4918654;29;20040;-68
2021/03/03 09:42:11;;;;;;;87.22;55.92;;;8.70;99.90;;;8.73;81.30;102732.91;4918425;29;20458;-69
2021/03/03 09:44:47;;;;;;;;;;;8.70;99.90;;;9.04;81.38;102769.97;4919035;29;20123;-69
2021/03/03 09:47:27;;;;;;;107.55;62.70;;;8.80;99.90;;;9.10;81.51;102768.44;4918508;29;19931;-73
2021/03/03 09:50:02;;;;;;;111.65;70.28;;;8.90;99.90;;;9.18;81.17;102770.41;4918108;29;20048;-72
2021/03/03 09:52:36;;;;;;;91.15;55.33;;;8.90;99.90;;;9.27;80.97;102766.31;4918352;29;20127;-70
2021/03/03 09:55:06;;;;;;;89.97;55.28;;;9.00;99.90;;;9.28;80.87;102764.59;4918170;29;20455;-71
2021/03/03 09:57:34;;;;;;;91.93;55.60;;;9.00;99.90;;;9.39;81.23;102766.72;4918206;29;20040;-71
2021/03/03 10:00:07;;;;;;;90.30;57.08;;;9.10;99.90;;;9.49;80.15;102771.44;4918078;29;20386;-71
2021/03/03 10:02:35;;;;;;;91.28;55.50;;;9.30;99.90;;;9.42;80.22;102780.03;4918501;29;20052;-71
2021/03/03 10:05:05;;;;;;;88.93;55.13;;;9.20;99.90;;;9.42;80.32;102780.03;4918189;29;20446;-70
2021/03/03 10:07:33;;;;;;;93.35;56.75;;;9.20;99.90;;;9.28;80.37;102783.06;4918005;29;20085;-70
2021/03/03 10:10:03;;;;;;;98.05;57.38;;;9.10;99.90;;;9.14;81.11;102777.34;4918183;29;20067;-70
2021/03/03 10:12:36;;;;;;;95.45;56.67;;;8.90;99.90;;;9.28;80.75;102775.16;4918149;29;20055;-70
2021/03/03 10:15:09;;;;;;;91.68;54.63;;;9.00;99.90;;;9.24;80.83;102781.19;4918033;29;20048;-70
2021/03/03 10:17:40;;;;;;;87.95;53.55;;;9.00;99.90;;;9.23;80.68;102774.13;4917958;29;20048;-70
2021/03/03 10:20:33;;;;;;;89.30;55.65;;;9.00;99.90;;;9.15;80.81;102773.88;4917770;29;20103;-69
2021/03/03 10:23:07;;;;;;;90.07;56.63;;;9.00;99.90;;;8.95;80.60;102696.69;4911776;29;20521;-70
2021/03/03 10:25:38;;;;;;;92.35;55.35;;;9.10;99.90;;;9.39;80.28;102740.28;4916832;29;20466;-70
2021/03/03 10:28:12;;;;;;;90.38;56.20;;;9.20;99.90;;;9.59;79.72;102773.50;4917718;29;20044;-70
2021/03/03 10:30:43;;;;;;;92.70;55.67;;;9.30;99.90;;;9.61;79.22;102778.81;4917833;29;20104;-70
2021/03/03 10:33:12;;;;;;;92.45;55.85;;;9.30;99.90;;;9.56;80.23;102776.03;4916716;29;20407;-69